Time;durP1;ratioP1;P1;durP2;ratioP2;P2;SDS_P1;SDS_P2;PMS_P1;PMS_P2;Temp;Humidity;BMP_temperature;BMP_pressure;BME280_temperature;BME280_humidity;BME280_pressure;Samples;Min_cycle;Max_cycle;Signal;HPM_P1;HPM_P2
2021/12/30 00:01:22;;;;;;;8.30;2.57;;;5.00;99.90;;;;;;5049254;28;20180;-48
2021/12/30 00:03:48;;;;;;;8.97;2.83;;;5.20;99.90;;;;;;5052126;28;20211;-47
2021/12/30 00:06:17;;;;;;;7.13;2.43;;;5.00;99.90;;;;;;5053805;28;20199;-47
2021/12/30 00:08:44;;;;;;;4.00;1.73;;;5.10;99.90;;;;;;5048841;28;20290;-48
2021/12/30 00:11:10;;;;;;;8.60;2.67;;;5.00;99.90;;;;;;5048958;28;20183;-47
2021/12/30 00:13:35;;;;;;;8.13;2.63;;;5.00;99.90;;;;;;5048844;28;20330;-47
2021/12/30 00:16:01;;;;;;;6.70;2.30;;;5.00;99.90;;;;;;5048732;28;20586;-47
2021/12/30 00:18:27;;;;;;;9.73;3.03;;;5.70;99.90;;;;;;5050639;28;20191;-47
2021/12/30 00:20:53;;;;;;;8.73;2.80;;;5.10;99.90;;;;;;5067751;28;20700;-47
2021/12/30 00:23:19;;;;;;;5.40;2.00;;;5.10;99.90;;;;;;5065353;28;20253;-47
2021/12/30 00:25:45;;;;;;;7.60;2.47;;;5.10;99.90;;;;;;5056607;28;20183;-47
2021/12/30 00:28:14;;;;;;;8.30;2.63;;;5.10;99.90;;;;;;5068467;28;20245;-47
2021/12/30 00:30:42;;;;;;;7.80;2.60;;;5.10;99.90;;;;;;5052208;28;20182;-47
2021/12/30 00:33:07;;;;;;;10.27;3.17;;;5.10;99.90;;;;;;5047382;28;20591;-47
2021/12/30 00:35:34;;;;;;;9.70;3.03;;;5.10;99.90;;;;;;5048287;28;20285;-47
2021/12/30 00:37:59;;;;;;;10.50;3.07;;;5.10;99.90;;;;;;5048185;28;20267;-47
2021/12/30 00:40:26;;;;;;;7.50;2.33;;;5.10;99.90;;;;;;5048940;28;20278;-46
2021/12/30 00:42:52;;;;;;;14.43;4.13;;;5.00;99.90;;;;;;5047924;28;20204;-47
2021/12/30 00:45:17;;;;;;;10.83;3.27;;;5.00;99.90;;;;;;5048016;28;20631;-47
2021/12/30 00:47:43;;;;;;;11.43;3.33;;;5.10;99.90;;;;;;5049713;28;20218;-47
2021/12/30 00:50:09;;;;;;;8.77;2.73;;;5.10;99.90;;;;;;5067802;28;20175;-47
2021/12/30 00:52:34;;;;;;;8.80;2.67;;;5.80;99.90;;;;;;5068573;28;20199;-47
2021/12/30 00:55:01;;;;;;;3.77;1.50;;;5.20;99.90;;;;;;5068265;28;20228;-47
2021/12/30 00:57:27;;;;;;;9.87;2.87;;;5.30;99.90;;;;;;5056408;28;20180;-47
2021/12/30 00:59:52;;;;;;;8.03;2.53;;;5.30;99.90;;;;;;5048186;28;20187;-47
2021/12/30 01:02:18;;;;;;;12.77;3.73;;;5.30;99.90;;;;;;5047654;28;20257;-47
2021/12/30 01:04:44;;;;;;;4.27;1.70;;;5.40;99.90;;;;;;5056713;28;20191;-49
2021/12/30 01:07:09;;;;;;;8.63;2.73;;;5.30;99.90;;;;;;5068287;28;20198;-47
2021/12/30 01:09:36;;;;;;;7.57;2.40;;;5.30;99.90;;;;;;5067803;28;20551;-48
2021/12/30 01:12:02;;;;;;;8.97;2.83;;;5.30;99.90;;;;;;5068257;28;20611;-47
2021/12/30 01:14:30;;;;;;;9.63;2.93;;;5.30;99.90;;;;;;5050548;28;20202;-47
2021/12/30 01:17:12;;;;;;;2.97;1.40;;;5.30;99.90;;;;;;5051091;28;20164;-47
2021/12/30 01:19:44;;;;;;;7.77;2.47;;;5.30;99.90;;;;;;5070178;28;20198;-47
2021/12/30 01:22:16;;;;;;;10.07;3.10;;;5.30;99.90;;;;;;5072120;28;20286;-47
2021/12/30 01:24:43;;;;;;;8.00;2.53;;;5.30;99.90;;;;;;5072440;28;20179;-47
2021/12/30 01:27:08;;;;;;;6.47;2.33;;;5.30;99.90;;;;;;5062053;28;20198;-47
2021/12/30 01:29:34;;;;;;;7.93;2.53;;;5.30;99.90;;;;;;5051675;28;20176;-47
2021/12/30 01:32:00;;;;;;;8.47;2.73;;;5.20;99.90;;;;;;5051854;28;20225;-47
2021/12/30 01:34:28;;;;;;;9.33;3.00;;;5.20;99.90;;;;;;5070710;28;20637;-48
2021/12/30 01:36:55;;;;;;;3.97;1.60;;;5.20;99.90;;;;;;5072292;28;20179;-48
2021/12/30 01:39:22;;;;;;;7.37;2.37;;;5.20;99.90;;;;;;5071728;28;20525;-47
2021/12/30 01:41:49;;;;;;;7.13;2.47;;;5.40;99.90;;;;;;5087672;28;20538;-47
2021/12/30 01:44:15;;;;;;;8.57;2.67;;;5.20;99.90;;;;;;5091803;28;20200;-47
2021/12/30 01:46:42;;;;;;;9.23;2.87;;;5.20;99.90;;;;;;5059683;28;20218;-47
2021/12/30 01:49:10;;;;;;;7.87;2.50;;;5.10;99.90;;;;;;5051597;28;20187;-47
2021/12/30 01:51:36;;;;;;;10.00;3.03;;;5.20;99.90;;;;;;5053493;28;20531;-47
2021/12/30 01:54:02;;;;;;;4.63;1.80;;;5.10;99.90;;;;;;5070865;28;20175;-47
2021/12/30 01:56:28;;;;;;;8.43;2.63;;;5.10;99.90;;;;;;5051944;28;20259;-47
2021/12/30 01:58:55;;;;;;;2.97;1.40;;;5.10;99.90;;;;;;5051287;28;20243;-47
2021/12/30 02:01:21;;;;;;;10.50;3.23;;;5.10;99.90;;;;;;5051223;28;20524;-47
2021/12/30 02:03:47;;;;;;;9.63;3.00;;;5.10;99.90;;;;;;5056602;28;20214;-47
2021/12/30 02:06:12;;;;;;;9.70;2.93;;;5.10;99.90;;;;;;5071015;28;20175;-47
2021/12/30 02:08:38;;;;;;;4.60;1.73;;;5.10;99.90;;;;;;5071294;28;20257;-47
2021/12/30 02:11:04;;;;;;;8.67;2.73;;;5.10;99.90;;;;;;5071531;28;20175;-47
2021/12/30 02:13:29;;;;;;;4.47;1.70;;;5.00;99.90;;;;;;5070353;28;20202;-47
2021/12/30 02:16:00;;;;;;;9.20;2.87;;;5.00;99.90;;;;;;5071351;28;20240;-47
2021/12/30 02:18:26;;;;;;;11.47;3.40;;;5.00;99.90;;;;;;5070693;28;20166;-47
2021/12/30 02:20:54;;;;;;;5.47;1.97;;;5.00;99.90;;;;;;5069292;28;20446;-48
2021/12/30 02:23:30;;;;;;;5.80;2.13;;;5.00;99.90;;;;;;5049636;28;20289;-47
2021/12/30 02:25:58;;;;;;;8.40;2.73;;;5.00;99.90;;;;;;5050764;28;20171;-48
2021/12/30 02:28:26;;;;;;;8.57;2.73;;;5.00;99.90;;;;;;5049442;28;20220;-47
2021/12/30 02:30:54;;;;;;;11.07;3.30;;;5.00;99.90;;;;;;5050956;28;20236;-47
2021/12/30 02:33:20;;;;;;;11.07;3.37;;;5.00;99.90;;;;;;5050853;28;20663;-47
2021/12/30 02:35:46;;;;;;;8.00;2.57;;;5.00;99.90;;;;;;5050853;28;20183;-47
2021/12/30 02:38:12;;;;;;;10.10;3.10;;;5.00;99.90;;;;;;5050189;28;20184;-48
2021/12/30 02:40:41;;;;;;;5.97;2.10;;;5.00;99.90;;;;;;5057225;28;20248;-47
2021/12/30 02:43:12;;;;;;;9.93;3.00;;;5.00;99.90;;;;;;5070839;28;20248;-48
2021/12/30 02:45:38;;;;;;;9.43;2.90;;;5.00;99.90;;;;;;5069986;28;20179;-47
2021/12/30 02:48:04;;;;;;;3.13;1.30;;;5.00;99.90;;;;;;5070460;28;20747;-47
2021/12/30 02:50:29;;;;;;;7.93;2.60;;;5.00;99.90;;;;;;5070015;28;20180;-47
2021/12/30 02:52:55;;;;;;;11.43;3.33;;;5.00;99.90;;;;;;5070131;28;20194;-47
2021/12/30 02:55:21;;;;;;;8.70;2.73;;;5.00;99.90;;;;;;5070396;28;20193;-47
2021/12/30 02:57:47;;;;;;;6.10;2.13;;;5.10;99.90;;;;;;5054736;28;20172;-47
2021/12/30 03:00:13;;;;;;;6.57;2.23;;;5.10;99.90;;;;;;5053585;28;20188;-48
2021/12/30 03:02:39;;;;;;;6.87;2.40;;;5.10;99.90;;;;;;5070332;28;20276;-47
2021/12/30 03:05:08;;;;;;;6.37;2.23;;;5.10;99.90;;;;;;5061449;28;20196;-47
2021/12/30 03:07:35;;;;;;;6.67;2.20;;;5.10;99.90;;;;;;5055247;28;20210;-47
2021/12/30 03:10:01;;;;;;;7.63;2.47;;;5.10;99.90;;;;;;5069511;28;20607;-47
2021/12/30 03:12:27;;;;;;;8.03;2.53;;;4.90;99.90;;;;;;5070180;28;20512;-47
2021/12/30 03:14:53;;;;;;;8.00;2.57;;;5.20;99.90;;;;;;5051607;28;20186;-48
2021/12/30 03:17:19;;;;;;;6.73;2.33;;;5.20;99.90;;;;;;5049862;28;20660;-48
2021/12/30 03:19:45;;;;;;;3.27;1.50;;;5.20;99.90;;;;;;5066552;28;20227;-47
2021/12/30 03:22:12;;;;;;;10.47;3.27;;;5.20;99.90;;;;;;5069621;28;20206;-47
2021/12/30 03:24:37;;;;;;;7.90;2.57;;;5.20;99.90;;;;;;5054126;28;20180;-47
2021/12/30 03:27:05;;;;;;;6.97;2.47;;;5.30;99.90;;;;;;5050132;28;20524;-47
2021/12/30 03:29:31;;;;;;;7.57;2.53;;;5.30;99.90;;;;;;5049455;28;20638;-47
2021/12/30 03:31:57;;;;;;;8.93;2.90;;;5.30;99.90;;;;;;5049819;28;20214;-47
2021/12/30 03:34:22;;;;;;;16.53;4.07;;;5.30;99.90;;;;;;5061635;23;20223;-65
2021/12/30 03:36:48;;;;;;;19.70;4.77;;;5.30;99.90;;;;;;5040368;28;20711;-65
2021/12/30 03:39:14;;;;;;;14.43;3.57;;;5.30;99.90;;;;;;5033115;28;20259;-66
2021/12/30 03:41:39;;;;;;;31.17;7.33;;;5.30;99.90;;;;;;5035728;28;20675;-65
2021/12/30 03:44:05;;;;;;;19.77;4.83;;;5.40;99.90;;;;;;5039150;28;20192;-65
2021/12/30 03:46:31;;;;;;;11.47;3.00;;;5.40;99.90;;;;;;5037939;28;20218;-65
2021/12/30 03:48:58;;;;;;;18.57;4.53;;;5.50;99.90;;;;;;5041924;28;20206;-65
2021/12/30 03:51:25;;;;;;;10.73;2.87;;;5.60;99.90;;;;;;5038246;28;20179;-66
2021/12/30 03:53:56;;;;;;;17.70;4.43;;;5.50;99.90;;;;;;5034761;28;20309;-65
2021/12/30 03:56:25;;;;;;;14.20;3.60;;;5.60;99.90;;;;;;5022834;28;20661;-65
2021/12/30 03:58:50;;;;;;;15.93;4.00;;;5.60;99.90;;;;;;5038859;28;20541;-65
2021/12/30 04:01:21;;;;;;;16.93;4.27;;;5.60;99.90;;;;;;5036791;28;20184;-65
2021/12/30 04:03:48;;;;;;;14.43;3.57;;;5.60;99.90;;;;;;5039530;28;20382;-65
2021/12/30 04:06:14;;;;;;;12.50;3.17;;;5.60;99.90;;;;;;5040475;28;20191;-65
2021/12/30 04:08:40;;;;;;;18.17;4.37;;;5.70;99.90;;;;;;5034313;28;20573;-65
2021/12/30 04:11:06;;;;;;;15.17;3.77;;;5.60;99.90;;;;;;5039679;28;20212;-65
2021/12/30 04:13:31;;;;;;;19.37;4.67;;;5.70;99.90;;;;;;5024024;28;20226;-65
2021/12/30 04:15:57;;;;;;;16.37;4.00;;;5.70;99.90;;;;;;5036455;28;20184;-65
2021/12/30 04:18:23;;;;;;;17.67;4.30;;;5.60;99.90;;;;;;5038129;28;20190;-65
2021/12/30 04:20:49;;;;;;;16.70;4.13;;;5.60;99.90;;;;;;5022407;28;20189;-65
2021/12/30 04:23:15;;;;;;;32.30;7.37;;;5.80;99.90;;;;;;5037481;28;20198;-65
2021/12/30 04:25:40;;;;;;;14.90;3.73;;;5.70;99.90;;;;;;5033002;28;20541;-65
2021/12/30 04:28:06;;;;;;;13.50;3.43;;;5.60;99.90;;;;;;5018588;28;20211;-65
2021/12/30 04:30:32;;;;;;;8.93;2.40;;;5.70;99.90;;;;;;5024731;28;20175;-65
2021/12/30 04:32:58;;;;;;;12.37;3.20;;;5.80;99.90;;;;;;5042093;28;20234;-65
2021/12/30 04:35:24;;;;;;;10.43;2.73;;;5.70;99.90;;;;;;5048615;28;20187;-65
2021/12/30 04:37:49;;;;;;;23.97;5.70;;;5.70;99.90;;;;;;5042890;28;20187;-65
2021/12/30 04:40:15;;;;;;;13.87;3.50;;;5.70;99.90;;;;;;5036055;28;20202;-66
2021/12/30 04:42:42;;;;;;;15.57;3.90;;;5.80;99.90;;;;;;5036388;28;20214;-65
2021/12/30 04:45:09;;;;;;;22.73;5.50;;;5.80;99.90;;;;;;5034283;28;20686;-65
2021/12/30 04:47:34;;;;;;;20.50;4.80;;;6.20;99.90;;;;;;5038109;28;20274;-65
2021/12/30 04:50:00;;;;;;;15.40;3.93;;;5.80;99.90;;;;;;5034523;28;20171;-65
2021/12/30 04:52:26;;;;;;;16.53;4.17;;;5.90;99.90;;;;;;5032258;28;20183;-65
2021/12/30 04:54:53;;;;;;;22.23;5.27;;;5.90;99.90;;;;;;5038243;28;20639;-65
2021/12/30 04:57:18;;;;;;;10.80;2.80;;;6.00;99.90;;;;;;5024686;28;20180;-65
2021/12/30 04:59:44;;;;;;;20.23;4.83;;;6.00;99.90;;;;;;5034810;28;20604;-65
2021/12/30 05:02:11;;;;;;;15.37;3.90;;;6.00;99.90;;;;;;5039893;28;20186;-65
2021/12/30 05:04:36;;;;;;;9.50;2.60;;;5.90;99.90;;;;;;5030194;28;20646;-66
2021/12/30 05:07:02;;;;;;;12.60;3.27;;;6.00;99.90;;;;;;5039342;28;20263;-66
2021/12/30 05:09:28;;;;;;;23.80;5.60;;;6.00;99.90;;;;;;5036163;28;20253;-67
2021/12/30 05:11:53;;;;;;;18.47;4.40;;;6.10;99.90;;;;;;5038350;28;20459;-66
2021/12/30 05:14:19;;;;;;;32.53;7.37;;;6.10;99.90;;;;;;5028441;28;20203;-67
2021/12/30 05:16:45;;;;;;;22.43;5.23;;;6.20;99.90;;;;;;5024891;28;20222;-67
2021/12/30 05:19:11;;;;;;;13.70;3.33;;;6.10;99.90;;;;;;5040176;28;20179;-67
2021/12/30 05:21:36;;;;;;;11.77;2.87;;;6.20;99.90;;;;;;5021564;28;20211;-67
2021/12/30 05:24:04;;;;;;;14.90;3.63;;;6.30;99.90;;;;;;5035047;28;20623;-67
2021/12/30 05:26:29;;;;;;;35.20;7.70;;;6.30;99.90;;;;;;5035087;28;20253;-66
2021/12/30 05:28:56;;;;;;;20.90;4.77;;;6.30;99.90;;;;;;5031941;28;20756;-67
2021/12/30 05:31:22;;;;;;;14.93;3.53;;;6.30;99.90;;;;;;5021631;28;21109;-67
2021/12/30 05:33:48;;;;;;;12.43;3.10;;;6.30;99.90;;;;;;5020436;28;20275;-66
2021/12/30 05:36:14;;;;;;;18.17;4.20;;;6.30;99.90;;;;;;5039144;28;20194;-66
2021/12/30 05:38:39;;;;;;;14.83;3.57;;;6.40;99.90;;;;;;5032366;28;20223;-66
2021/12/30 05:41:05;;;;;;;23.60;5.33;;;6.40;99.90;;;;;;5021227;28;20180;-67
2021/12/30 05:43:31;;;;;;;21.10;4.77;;;6.40;99.90;;;;;;5039307;28;20219;-66
2021/12/30 05:45:56;;;;;;;20.07;4.57;;;6.40;99.90;;;;;;5033243;28;20188;-66
2021/12/30 05:48:22;;;;;;;11.17;2.80;;;6.50;99.90;;;;;;5035771;28;20203;-67
2021/12/30 05:50:48;;;;;;;25.03;5.60;;;6.50;99.90;;;;;;5039262;28;20181;-67
2021/12/30 05:53:13;;;;;;;37.47;8.00;;;6.80;99.90;;;;;;5034076;28;20180;-67
2021/12/30 05:55:39;;;;;;;16.00;3.70;;;6.60;99.90;;;;;;5021284;28;20191;-67
2021/12/30 05:58:04;;;;;;;23.27;5.10;;;6.60;99.90;;;;;;5022825;28;20271;-66
2021/12/30 06:00:31;;;;;;;32.03;6.67;;;6.70;99.90;;;;;;5031511;28;20196;-67
2021/12/30 06:02:58;;;;;;;28.70;5.80;;;6.50;99.90;;;;;;5041026;28;20545;-67
2021/12/30 06:05:23;;;;;;;25.27;5.10;;;6.60;99.90;;;;;;5023153;28;20210;-67
2021/12/30 06:07:49;;;;;;;19.77;4.10;;;6.70;99.90;;;;;;5025744;28;20676;-67
2021/12/30 06:10:15;;;;;;;19.33;4.03;;;6.70;99.90;;;;;;5024585;28;20660;-67
2021/12/30 06:12:43;;;;;;;26.53;5.27;;;7.10;99.90;;;;;;5039911;28;20179;-67
2021/12/30 06:15:10;;;;;;;11.00;2.50;;;6.60;99.90;;;;;;5022566;28;20207;-67
2021/12/30 06:17:37;;;;;;;30.33;5.97;;;6.80;99.90;;;;;;5040774;28;20224;-67
2021/12/30 06:20:08;;;;;;;21.10;4.33;;;6.90;99.90;;;;;;5038967;28;20517;-67
2021/12/30 06:22:34;;;;;;;17.50;3.70;;;7.00;99.90;;;;;;5039695;28;20171;-66
2021/12/30 06:24:59;;;;;;;23.43;4.70;;;7.20;99.90;;;;;;5020653;28;20233;-65
2021/12/30 06:27:25;;;;;;;36.27;6.93;;;7.00;99.90;;;;;;5041957;28;20231;-66
2021/12/30 06:29:50;;;;;;;26.30;5.00;;;7.10;99.90;;;;;;5039852;28;20179;-66
2021/12/30 06:32:16;;;;;;;41.57;7.83;;;;;;;;;;5040814;28;20629;-66
2021/12/30 06:34:42;;;;;;;15.67;3.30;;;7.00;99.90;;;;;;5029181;28;20289;-66
2021/12/30 06:37:07;;;;;;;21.20;4.37;;;6.70;99.90;;;;;;5027800;28;20649;-66
2021/12/30 06:39:33;;;;;;;19.80;4.13;;;7.20;99.90;;;;;;5036544;28;20180;-67
2021/12/30 06:41:58;;;;;;;24.27;4.80;;;7.00;99.90;;;;;;5040632;28;20255;-66
2021/12/30 06:44:24;;;;;;;46.43;8.63;;;7.10;99.90;;;;;;5042786;28;20203;-66
2021/12/30 06:46:56;;;;;;;25.23;4.93;;;7.10;99.90;;;;;;5032952;28;20889;-66
2021/12/30 06:49:22;;;;;;;39.70;7.33;;;7.20;99.90;;;;;;5021609;28;20180;-66
2021/12/30 06:51:47;;;;;;;37.27;7.10;;;7.20;99.90;;;;;;5037656;28;20542;-66
2021/12/30 06:54:13;;;;;;;16.70;3.53;;;7.30;99.90;;;;;;5041613;28;20203;-65
2021/12/30 06:56:39;;;;;;;20.30;4.07;;;7.40;99.90;;;;;;5040672;28;20183;-65
2021/12/30 06:59:05;;;;;;;50.40;9.37;;;7.30;99.90;;;;;;5041009;28;20187;-66
2021/12/30 07:01:30;;;;;;;21.37;4.37;;;7.30;99.90;;;;;;5036255;28;21082;-65
2021/12/30 07:03:56;;;;;;;31.40;6.00;;;7.40;99.90;;;;;;5018466;28;20199;-65
2021/12/30 07:06:22;;;;;;;41.47;7.80;;;7.40;99.90;;;;;;5037257;28;20234;-65
2021/12/30 07:08:48;;;;;;;12.47;2.73;;;7.50;99.90;;;;;;5043378;28;20203;-66
2021/12/30 07:11:13;;;;;;;18.13;3.77;;;7.50;99.90;;;;;;5027716;28;20288;-65
2021/12/30 07:13:39;;;;;;;13.33;2.87;;;7.50;99.90;;;;;;5035728;28;20821;-65
2021/12/30 07:16:04;;;;;;;44.37;8.33;;;7.60;99.90;;;;;;5024159;28;20172;-66
2021/12/30 07:18:30;;;;;;;40.37;7.50;;;7.60;99.90;;;;;;5032080;28;20190;-67
2021/12/30 07:20:55;;;;;;;28.73;5.67;;;7.60;99.90;;;;;;5036824;28;20214;-65
2021/12/30 07:23:21;;;;;;;39.67;7.43;;;7.60;99.90;;;;;;5039172;28;20664;-66
2021/12/30 07:25:46;;;;;;;42.30;7.97;;;7.70;99.90;;;;;;5037749;28;20191;-65
2021/12/30 07:28:12;;;;;;;33.23;6.37;;;7.70;99.90;;;;;;5033812;28;20314;-66
2021/12/30 07:30:38;;;;;;;54.50;10.20;;;7.70;99.90;;;;;;5010391;28;20642;-66
2021/12/30 07:33:06;;;;;;;29.03;5.70;;;7.80;99.90;;;;;;5020510;28;20207;-66
2021/12/30 07:35:33;;;;;;;13.17;2.90;;;7.80;99.90;;;;;;5025191;28;20175;-66
2021/12/30 07:37:59;;;;;;;31.90;6.27;;;7.90;99.90;;;;;;5038754;28;20179;-66
2021/12/30 07:40:24;;;;;;;27.53;5.33;;;7.90;99.90;;;;;;5036196;28;20556;-66
2021/12/30 07:42:50;;;;;;;37.87;7.10;;;;;;;;;;5034545;28;20187;-66
2021/12/30 07:45:16;;;;;;;21.73;4.50;;;7.80;99.90;;;;;;5035761;28;20203;-66
2021/12/30 07:47:42;;;;;;;39.80;7.67;;;7.90;99.90;;;;;;5037409;28;20208;-66
2021/12/30 07:50:10;;;;;;;24.43;4.93;;;7.90;99.90;;;;;;5038408;28;20209;-66
2021/12/30 07:52:37;;;;;;;20.57;4.33;;;7.90;99.90;;;;;;5041410;28;20193;-66
2021/12/30 07:55:04;;;;;;;31.23;6.07;;;7.90;99.90;;;;;;5029087;28;21187;-66
2021/12/30 07:57:30;;;;;;;57.60;10.47;;;7.90;99.90;;;;;;5017806;28;20187;-66
2021/12/30 07:59:56;;;;;;;14.10;3.17;;;8.00;99.90;;;;;;5029552;28;20273;-66
2021/12/30 08:02:22;;;;;;;13.33;3.00;;;8.00;99.90;;;;;;5028796;28;20187;-66
2021/12/30 08:04:48;;;;;;;14.27;3.10;;;8.00;99.90;;;;;;5041567;28;20386;-66
2021/12/30 08:07:19;;;;;;;34.77;6.83;;;8.00;99.90;;;;;;5034202;28;20214;-65
2021/12/30 08:09:44;;;;;;;27.80;5.57;;;8.00;99.90;;;;;;5030160;28;20262;-65
2021/12/30 08:12:10;;;;;;;34.93;6.87;;;8.00;99.90;;;;;;5028215;28;20725;-65
2021/12/30 08:14:35;;;;;;;31.90;6.37;;;8.00;99.90;;;;;;5046043;28;20751;-66
2021/12/30 08:17:01;;;;;;;20.80;4.27;;;8.00;99.90;;;;;;5040628;28;20184;-65
2021/12/30 08:19:27;;;;;;;46.73;8.77;;;8.10;99.90;;;;;;5032054;28;20263;-65
2021/12/30 08:21:52;;;;;;;22.30;4.57;;;8.10;99.90;;;;;;5021894;28;20195;-67
2021/12/30 08:24:18;;;;;;;41.13;7.97;;;8.00;99.90;;;;;;5026683;28;20609;-68
2021/12/30 08:26:43;;;;;;;28.50;5.80;;;7.90;99.90;;;;;;5035133;28;20176;-67
2021/12/30 08:29:09;;;;;;;45.00;8.60;;;8.10;99.90;;;;;;5034498;28;20730;-68
2021/12/30 08:31:35;;;;;;;26.30;5.23;;;8.10;99.90;;;;;;5021643;28;20191;-64
2021/12/30 08:34:02;;;;;;;28.53;5.67;;;8.10;99.90;;;;;;5025507;28;20222;-65
2021/12/30 08:36:27;;;;;;;23.77;4.80;;;8.20;99.90;;;;;;5012685;28;20281;-65
2021/12/30 08:38:53;;;;;;;33.17;6.60;;;8.20;99.90;;;;;;5034648;28;20657;-64
2021/12/30 08:41:18;;;;;;;27.90;5.67;;;8.20;99.90;;;;;;5032937;28;20194;-66
2021/12/30 08:43:44;;;;;;;33.63;6.67;;;8.20;99.90;;;;;;5028435;28;20209;-65
2021/12/30 08:46:10;;;;;;;39.57;7.63;;;8.20;99.90;;;;;;5033303;28;20283;-65
2021/12/30 08:48:37;;;;;;;38.00;7.37;;;8.20;99.90;;;;;;5032863;28;20203;-66
2021/12/30 08:51:03;;;;;;;30.70;6.13;;;8.20;99.90;;;;;;5032760;28;20179;-66
2021/12/30 08:53:29;;;;;;;31.23;6.23;;;8.20;99.90;;;;;;5036307;28;20206;-67
2021/12/30 08:55:55;;;;;;;9.93;2.37;;;8.30;99.90;;;;;;5038934;28;20179;-66
2021/12/30 08:58:20;;;;;;;24.80;4.97;;;8.30;99.90;;;;;;5032949;28;20203;-66
2021/12/30 09:00:47;;;;;;;37.30;7.40;;;;;;;;;;5037559;28;20191;-67
2021/12/30 09:03:15;;;;;;;37.47;7.33;;;8.40;99.90;;;;;;5038338;28;20172;-66
2021/12/30 09:05:41;;;;;;;19.77;4.00;;;8.40;99.90;;;;;;5029539;28;20187;-67
2021/12/30 09:08:07;;;;;;;23.70;4.73;;;8.40;99.90;;;;;;5036604;28;20687;-66
2021/12/30 09:10:37;;;;;;;50.57;9.37;;;8.40;99.90;;;;;;5028981;28;20194;-67
2021/12/30 09:13:03;;;;;;;35.77;7.10;;;;;;;;;;5023112;28;20176;-67
2021/12/30 09:15:29;;;;;;;53.70;11.23;;;;;;;;;;5026165;28;22503;-68
2021/12/30 09:17:56;;;;;;;66.43;15.40;;;;;;;;;;5006295;28;20184;-67
2021/12/30 09:20:22;;;;;;;47.60;12.57;;;;;;;;;;5018271;28;20687;-68
2021/12/30 09:22:48;;;;;;;67.60;18.23;;;;;;;;;;5029879;28;20183;-69
2021/12/30 09:25:17;;;;;;;127.13;36.73;;;8.50;99.90;;;;;;5021862;28;20298;-68
2021/12/30 09:27:43;;;;;;;65.57;21.23;;;;;;;;;;5030054;28;20692;-67
2021/12/30 09:30:12;;;;;;;70.87;29.47;;;8.60;99.90;;;;;;5009558;28;20193;-67
2021/12/30 09:32:39;;;;;;;36.87;21.23;;;8.50;99.90;;;;;;5024369;28;20723;-67
2021/12/30 09:35:05;;;;;;;185.10;108.87;;;8.50;99.90;;;;;;5053603;22;20239;-53
2021/12/30 09:37:31;;;;;;;81.43;56.43;;;;;;;;;;5039686;28;20187;-53
2021/12/30 09:39:59;;;;;;;99.17;82.43;;;;;;;;;;5044943;28;20183;-52
2021/12/30 09:42:25;;;;;;;102.70;87.07;;;;;;;;;;5038330;28;20698;-52
2021/12/30 09:44:51;;;;;;;95.90;61.13;;;;;;;;;;5023352;28;20200;-53
2021/12/30 09:47:17;;;;;;;78.73;67.13;;;8.30;99.90;;;;;;5028782;28;20184;-53
2021/12/30 09:49:45;;;;;;;96.77;82.93;;;;;;;;;;5034931;28;20234;-52
2021/12/30 09:52:10;;;;;;;173.93;119.97;;;;;;;;;;5031898;28;20211;-53
2021/12/30 09:54:37;;;;;;;127.23;102.00;;;;;;;;;;5036639;28;20297;-53
2021/12/30 09:57:03;;;;;;;146.80;111.27;;;;;;;;;;5037069;28;20180;-53
2021/12/30 09:59:31;;;;;;;127.33;103.30;;;;;;;;;;5024317;28;20268;-53
2021/12/30 10:01:57;;;;;;;141.83;109.33;;;;;;;;;;5038241;28;20290;-53
2021/12/30 10:04:31;;;;;;;74.67;36.33;;;8.40;99.90;;;;;;5036047;28;20272;-53
2021/12/30 10:06:58;;;;;;;99.57;59.70;;;;;;;;;;5036946;28;20266;-53
2021/12/30 10:09:45;;;;;;;58.33;31.17;;;8.40;99.90;;;;;;5032487;28;20265;-53
2021/12/30 10:12:12;;;;;;;75.10;42.27;;;8.40;99.90;;;;;;5032252;28;20731;-53
2021/12/30 10:14:39;;;;;;;141.73;71.57;;;;;;;;;;5026975;28;20210;-53
2021/12/30 10:17:28;;;;;;;92.93;53.83;;;8.50;99.90;;;;;;5015716;28;20188;-52
2021/12/30 10:19:55;;;;;;;60.73;46.83;;;8.40;99.90;;;;;;5022145;28;20177;-53
2021/12/30 10:22:24;;;;;;;79.63;54.93;;;8.50;99.90;;;;;;5038863;28;20245;-52
2021/12/30 10:24:51;;;;;;;76.07;61.07;;;8.50;99.90;;;;;;5028010;28;20181;-52
2021/12/30 10:27:29;;;;;;;105.13;79.93;;;8.30;99.90;;;;;;5035352;28;20584;-53
2021/12/30 10:29:56;;;;;;;120.67;90.17;;;8.40;99.90;;;;;;5027944;28;20250;-53
2021/12/30 10:32:25;;;;;;;112.40;88.07;;;8.50;99.90;;;;;;5030179;28;20206;-53
2021/12/30 10:35:14;;;;;;;147.73;107.93;;;8.50;99.90;;;;;;5016673;28;20238;-53
2021/12/30 10:37:45;;;;;;;109.83;88.77;;;8.50;99.90;;;;;;5024316;28;20212;-52
2021/12/30 10:40:29;;;;;;;115.53;95.03;;;8.50;99.90;;;;;;5036742;28;20605;-53
2021/12/30 10:43:30;;;;;;;189.73;130.13;;;8.30;99.90;;;;;;5022319;28;20290;-52
2021/12/30 10:46:04;;;;;;;173.53;118.00;;;8.50;99.90;;;;;;5016602;28;20187;-53
2021/12/30 10:48:30;;;;;;;180.07;122.83;;;;;;;;;;5010122;28;20207;-53
2021/12/30 10:51:32;;;;;;;241.13;147.53;;;8.60;99.90;;;;;;5009740;28;20656;-53
2021/12/30 10:53:58;;;;;;;131.53;100.17;;;;;;;;;;5013722;28;20231;-53
2021/12/30 10:56:24;;;;;;;132.83;100.27;;;;;;;;;;5027968;28;20416;-53
2021/12/30 10:58:50;;;;;;;181.83;121.53;;;;;;;;;;5009606;28;20203;-52
2021/12/30 11:01:21;;;;;;;270.37;149.33;;;8.70;99.90;;;;;;5013574;28;20199;-52
2021/12/30 11:03:59;;;;;;;109.90;90.47;;;8.70;99.90;;;;;;5027916;28;20200;-52
2021/12/30 11:06:25;;;;;;;175.63;122.57;;;8.70;99.90;;;;;;5023895;28;20298;-52
2021/12/30 11:09:18;;;;;;;260.87;158.03;;;8.80;99.90;;;;;;5012986;28;20211;-53
2021/12/30 11:11:53;;;;;;;286.53;158.53;;;8.80;99.90;;;;;;5021954;28;20219;-53
2021/12/30 11:14:22;;;;;;;228.93;150.37;;;8.80;99.90;;;;;;5020198;28;20184;-52
2021/12/30 11:17:14;;;;;;;170.50;120.17;;;8.80;99.90;;;;;;5018023;28;20584;-53
2021/12/30 11:19:55;;;;;;;221.93;138.70;;;8.80;99.90;;;;;;5019983;28;20275;-52
2021/12/30 11:22:26;;;;;;;96.87;38.13;;;8.80;99.90;;;;;;5025290;28;20211;-53
2021/12/30 11:24:55;;;;;;;98.43;41.87;;;8.80;99.90;;;;;;5018832;28;20366;-53
2021/12/30 11:27:22;;;;;;;70.83;35.83;;;8.80;99.90;;;;;;5023411;28;20509;-53
2021/12/30 11:29:49;;;;;;;160.10;74.70;;;8.80;99.90;;;;;;5016279;28;20207;-53
2021/12/30 11:32:19;;;;;;;174.23;84.97;;;8.80;99.90;;;;;;5002029;28;20213;-53
2021/12/30 11:34:46;;;;;;;129.03;75.30;;;8.80;99.90;;;;;;5024351;28;20205;-52
2021/12/30 11:37:14;;;;;;;58.20;40.10;;;;;;;;;;5027343;28;20504;-52
2021/12/30 11:39:55;;;;;;;56.87;38.20;;;11.30;99.90;;;;;;5040655;28;20556;-53
2021/12/30 11:42:23;;;;;;;61.90;40.83;;;9.00;99.90;;;;;;5022109;28;20234;-53
2021/12/30 11:44:55;;;;;;;83.47;44.53;;;9.00;99.90;;;;;;5024065;28;20642;-53
2021/12/30 11:47:34;;;;;;;46.53;19.73;;;8.90;99.90;;;;;;5026213;28;20262;-53
2021/12/30 11:50:09;;;;;;;52.90;20.17;;;8.90;99.90;;;;;;5025014;28;20176;-52
2021/12/30 11:52:52;;;;;;;103.57;33.53;;;8.90;99.90;;;;;;5020430;28;20218;-53
2021/12/30 11:55:45;;;;;;;78.97;26.77;;;9.00;99.90;;;;;;5020826;28;20723;-52
2021/12/30 11:58:32;;;;;;;92.77;29.27;;;9.20;99.90;;;;;;5021285;28;20261;-52
2021/12/30 12:01:13;;;;;;;70.90;23.37;;;9.00;99.90;;;;;;5019745;28;20452;-53
2021/12/30 12:03:47;;;;;;;52.93;18.67;;;9.00;99.90;;;;;;5029728;28;20556;-52
2021/12/30 12:06:28;;;;;;;50.63;18.00;;;9.10;99.90;;;;;;5024405;28;20183;-53
2021/12/30 12:08:54;;;;;;;64.67;20.73;;;;;;;;;;5021985;28;20199;-53
2021/12/30 12:11:28;;;;;;;60.80;19.63;;;9.10;99.90;;;;;;5024833;28;20273;-53
2021/12/30 12:14:11;;;;;;;38.43;13.33;;;9.40;99.90;;;;;;5025035;28;20207;-53
2021/12/30 12:16:58;;;;;;;48.07;17.03;;;9.10;99.90;;;;;;5021281;28;20188;-53
2021/12/30 12:19:38;;;;;;;60.87;20.37;;;9.10;99.90;;;;;;5013182;28;20689;-53
2021/12/30 12:22:25;;;;;;;51.27;17.60;;;9.10;99.90;;;;;;5031735;28;20192;-52
2021/12/30 12:25:10;;;;;;;63.40;20.13;;;9.20;99.90;;;;;;5006364;28;20496;-53
2021/12/30 12:27:41;;;;;;;84.67;25.10;;;9.30;99.90;;;;;;5020871;28;20393;-52
2021/12/30 12:30:33;;;;;;;59.53;19.13;;;9.10;99.90;;;;;;5016442;28;20191;-53
2021/12/30 12:33:20;;;;;;;87.03;25.57;;;8.90;99.90;;;;;;5019878;28;20621;-52
2021/12/30 12:35:46;;;;;;;89.80;26.40;;;;;;;;;;4991309;28;1015827;-52
2021/12/30 12:38:12;;;;;;;61.67;20.13;;;;;;;;;;5027593;28;20832;-52
2021/12/30 12:40:41;;;;;;;137.57;39.00;;;9.10;99.90;;;;;;5015146;28;20443;-52
2021/12/30 12:43:23;;;;;;;60.03;19.57;;;9.10;99.90;;;;;;5022241;28;20336;-53
2021/12/30 12:45:48;;;;;;;68.67;21.30;;;9.40;99.90;;;;;;5015620;28;20623;-52
2021/12/30 12:48:20;;;;;;;58.00;19.07;;;9.40;99.90;;;;;;5021091;28;20219;-52
2021/12/30 12:50:52;;;;;;;62.50;20.30;;;9.40;99.90;;;;;;5026050;28;20187;-52
2021/12/30 12:53:23;;;;;;;90.47;26.63;;;9.10;99.90;;;;;;5035990;28;20208;-52
2021/12/30 12:56:19;;;;;;;90.03;26.23;;;9.00;99.90;;;;;;5018696;28;20168;-53
2021/12/30 12:58:54;;;;;;;106.67;30.70;;;9.10;99.90;;;;;;5008315;28;20644;-52